sensor_id;sensor_type;location;lat;lon;timestamp;temperature;humidity
78647;DHT22;67961;43.460;3.762;2023-04-26T00:02:22;15.40;49.60
78647;DHT22;67961;43.460;3.762;2023-04-26T00:04:54;15.40;49.70
78647;DHT22;67961;43.460;3.762;2023-04-26T00:07:21;15.40;49.70
78647;DHT22;67961;43.460;3.762;2023-04-26T00:09:49;15.40;49.40
78647;DHT22;67961;43.460;3.762;2023-04-26T00:12:17;15.40;49.70
78647;DHT22;67961;43.460;3.762;2023-04-26T00:14:42;15.30;49.70
78647;DHT22;67961;43.460;3.762;2023-04-26T00:17:08;15.20;49.90
78647;DHT22;67961;43.460;3.762;2023-04-26T00:19:34;15.20;50.10
78647;DHT22;67961;43.460;3.762;2023-04-26T00:21:59;15.30;50.00
78647;DHT22;67961;43.460;3.762;2023-04-26T00:24:25;15.30;50.10
78647;DHT22;67961;43.460;3.762;2023-04-26T00:26:54;15.30;50.10
78647;DHT22;67961;43.460;3.762;2023-04-26T00:29:22;15.30;50.00
78647;DHT22;67961;43.460;3.762;2023-04-26T00:31:48;15.40;49.90
78647;DHT22;67961;43.460;3.762;2023-04-26T00:34:13;15.40;49.70
78647;DHT22;67961;43.460;3.762;2023-04-26T00:36:40;15.40;50.20
78647;DHT22;67961;43.460;3.762;2023-04-26T00:39:06;15.50;49.80
78647;DHT22;67961;43.460;3.762;2023-04-26T00:41:33;15.50;50.00
78647;DHT22;67961;43.460;3.762;2023-04-26T00:43:58;15.50;50.00
78647;DHT22;67961;43.460;3.762;2023-04-26T00:46:24;15.50;50.20
78647;DHT22;67961;43.460;3.762;2023-04-26T00:48:50;15.50;50.00
78647;DHT22;67961;43.460;3.762;2023-04-26T00:51:16;15.40;50.10
78647;DHT22;67961;43.460;3.762;2023-04-26T00:53:42;15.40;50.20
78647;DHT22;67961;43.460;3.762;2023-04-26T00:56:11;15.40;50.60
78647;DHT22;67961;43.460;3.762;2023-04-26T00:58:37;15.40;50.30
78647;DHT22;67961;43.460;3.762;2023-04-26T01:01:03;15.30;50.50
78647;DHT22;67961;43.460;3.762;2023-04-26T01:03:29;15.20;50.90
78647;DHT22;67961;43.460;3.762;2023-04-26T01:05:55;15.20;51.20
78647;DHT22;67961;43.460;3.762;2023-04-26T01:08:22;15.20;51.30
78647;DHT22;67961;43.460;3.762;2023-04-26T01:10:48;15.20;51.10
78647;DHT22;67961;43.460;3.762;2023-04-26T01:13:14;15.20;50.90
78647;DHT22;67961;43.460;3.762;2023-04-26T01:15:45;15.30;51.20
78647;DHT22;67961;43.460;3.762;2023-04-26T01:18:11;15.30;51.00
78647;DHT22;67961;43.460;3.762;2023-04-26T01:20:36;15.30;51.30
78647;DHT22;67961;43.460;3.762;2023-04-26T01:23:02;15.30;51.10
78647;DHT22;67961;43.460;3.762;2023-04-26T01:25:28;15.20;51.10
78647;DHT22;67961;43.460;3.762;2023-04-26T01:27:54;15.20;51.30
78647;DHT22;67961;43.460;3.762;2023-04-26T01:30:19;15.20;51.20
78647;DHT22;67961;43.460;3.762;2023-04-26T01:32:45;15.20;51.00
78647;DHT22;67961;43.460;3.762;2023-04-26T01:35:11;15.20;50.70
78647;DHT22;67961;43.460;3.762;2023-04-26T01:37:36;15.20;51.10
78647;DHT22;67961;43.460;3.762;2023-04-26T01:40:02;15.20;51.10
78647;DHT22;67961;43.460;3.762;2023-04-26T01:42:31;15.20;51.20
78647;DHT22;67961;43.460;3.762;2023-04-26T01:44:57;15.20;50.80
78647;DHT22;67961;43.460;3.762;2023-04-26T01:47:22;15.20;50.80
78647;DHT22;67961;43.460;3.762;2023-04-26T01:49:49;15.20;50.60
78647;DHT22;67961;43.460;3.762;2023-04-26T01:52:15;15.20;50.50
78647;DHT22;67961;43.460;3.762;2023-04-26T01:54:41;15.20;50.70
78647;DHT22;67961;43.460;3.762;2023-04-26T01:57:06;15.20;50.30
78647;DHT22;67961;43.460;3.762;2023-04-26T01:59:32;15.10;50.30
78647;DHT22;67961;43.460;3.762;2023-04-26T02:01:58;15.10;50.30
78647;DHT22;67961;43.460;3.762;2023-04-26T02:04:24;15.10;50.00
78647;DHT22;67961;43.460;3.762;2023-04-26T02:06:50;15.10;50.00
78647;DHT22;67961;43.460;3.762;2023-04-26T02:09:16;15.10;50.00
78647;DHT22;67961;43.460;3.762;2023-04-26T02:11:42;15.10;49.90
78647;DHT22;67961;43.460;3.762;2023-04-26T02:14:08;15.10;49.70
78647;DHT22;67961;43.460;3.762;2023-04-26T02:16:33;15.10;49.80
78647;DHT22;67961;43.460;3.762;2023-04-26T02:18:59;15.10;49.50
78647;DHT22;67961;43.460;3.762;2023-04-26T02:21:25;15.10;50.00
78647;DHT22;67961;43.460;3.762;2023-04-26T02:23:52;15.10;49.70
78647;DHT22;67961;43.460;3.762;2023-04-26T02:26:18;15.10;49.50
78647;DHT22;67961;43.460;3.762;2023-04-26T02:28:44;15.00;49.50
78647;DHT22;67961;43.460;3.762;2023-04-26T02:31:10;15.00;49.70
78647;DHT22;67961;43.460;3.762;2023-04-26T02:33:36;15.00;49.20
78647;DHT22;67961;43.460;3.762;2023-04-26T02:36:03;15.00;49.00
78647;DHT22;67961;43.460;3.762;2023-04-26T02:38:29;14.90;49.10
78647;DHT22;67961;43.460;3.762;2023-04-26T02:40:59;14.80;49.30
78647;DHT22;67961;43.460;3.762;2023-04-26T02:43:25;14.80;49.10
78647;DHT22;67961;43.460;3.762;2023-04-26T02:45:51;14.70;49.10
78647;DHT22;67961;43.460;3.762;2023-04-26T02:48:16;14.60;49.40
78647;DHT22;67961;43.460;3.762;2023-04-26T02:50:42;14.60;49.50
78647;DHT22;67961;43.460;3.762;2023-04-26T02:53:08;14.50;49.40
78647;DHT22;67961;43.460;3.762;2023-04-26T02:55:34;14.50;49.10
78647;DHT22;67961;43.460;3.762;2023-04-26T02:58:00;14.40;49.40
78647;DHT22;67961;43.460;3.762;2023-04-26T03:00:25;14.40;49.40
78647;DHT22;67961;43.460;3.762;2023-04-26T03:02:52;14.30;49.50
78647;DHT22;67961;43.460;3.762;2023-04-26T03:05:17;14.30;49.50
78647;DHT22;67961;43.460;3.762;2023-04-26T03:07:44;14.30;49.30
78647;DHT22;67961;43.460;3.762;2023-04-26T03:10:10;14.20;49.80
78647;DHT22;67961;43.460;3.762;2023-04-26T03:12:36;14.20;49.80
78647;DHT22;67961;43.460;3.762;2023-04-26T03:15:01;14.20;49.90
78647;DHT22;67961;43.460;3.762;2023-04-26T03:17:28;14.10;50.00
78647;DHT22;67961;43.460;3.762;2023-04-26T03:19:54;14.10;49.90
78647;DHT22;67961;43.460;3.762;2023-04-26T03:22:20;14.10;49.90
78647;DHT22;67961;43.460;3.762;2023-04-26T03:24:45;14.10;50.20
78647;DHT22;67961;43.460;3.762;2023-04-26T03:27:12;14.00;50.00
78647;DHT22;67961;43.460;3.762;2023-04-26T03:29:38;14.00;50.30
78647;DHT22;67961;43.460;3.762;2023-04-26T03:32:04;14.00;50.00
78647;DHT22;67961;43.460;3.762;2023-04-26T03:34:30;14.00;50.30
78647;DHT22;67961;43.460;3.762;2023-04-26T03:36:56;14.00;50.30
78647;DHT22;67961;43.460;3.762;2023-04-26T03:39:22;14.00;50.40
78647;DHT22;67961;43.460;3.762;2023-04-26T03:41:47;14.00;50.50
78647;DHT22;67961;43.460;3.762;2023-04-26T03:44:13;14.00;50.10
78647;DHT22;67961;43.460;3.762;2023-04-26T03:46:39;14.00;49.70
78647;DHT22;67961;43.460;3.762;2023-04-26T03:49:05;13.90;50.20
78647;DHT22;67961;43.460;3.762;2023-04-26T03:51:31;13.70;50.30
78647;DHT22;67961;43.460;3.762;2023-04-26T03:53:58;13.70;50.70
78647;DHT22;67961;43.460;3.762;2023-04-26T03:56:23;13.70;50.80
78647;DHT22;67961;43.460;3.762;2023-04-26T03:58:49;13.70;50.70
78647;DHT22;67961;43.460;3.762;2023-04-26T04:01:15;13.70;51.00
78647;DHT22;67961;43.460;3.762;2023-04-26T04:03:40;13.70;50.90
78647;DHT22;67961;43.460;3.762;2023-04-26T04:06:06;13.60;51.00
78647;DHT22;67961;43.460;3.762;2023-04-26T04:08:32;13.60;51.30
78647;DHT22;67961;43.460;3.762;2023-04-26T04:10:58;13.60;51.50
78647;DHT22;67961;43.460;3.762;2023-04-26T04:13:24;13.50;51.70
78647;DHT22;67961;43.460;3.762;2023-04-26T04:15:50;13.50;51.60
78647;DHT22;67961;43.460;3.762;2023-04-26T04:18:16;13.40;51.70
78647;DHT22;67961;43.460;3.762;2023-04-26T04:20:41;13.30;52.20
78647;DHT22;67961;43.460;3.762;2023-04-26T04:23:07;13.30;52.50
78647;DHT22;67961;43.460;3.762;2023-04-26T04:25:33;13.30;52.60
78647;DHT22;67961;43.460;3.762;2023-04-26T04:28:00;13.20;52.60
78647;DHT22;67961;43.460;3.762;2023-04-26T04:30:27;13.30;52.50
78647;DHT22;67961;43.460;3.762;2023-04-26T04:32:54;13.30;52.80
78647;DHT22;67961;43.460;3.762;2023-04-26T04:35:21;13.20;52.70
78647;DHT22;67961;43.460;3.762;2023-04-26T04:37:47;13.10;53.10
78647;DHT22;67961;43.460;3.762;2023-04-26T04:40:14;13.10;53.20
78647;DHT22;67961;43.460;3.762;2023-04-26T04:42:40;13.10;53.30
78647;DHT22;67961;43.460;3.762;2023-04-26T04:45:09;13.10;53.30
78647;DHT22;67961;43.460;3.762;2023-04-26T04:47:35;13.10;53.50
78647;DHT22;67961;43.460;3.762;2023-04-26T04:50:07;13.00;53.50
78647;DHT22;67961;43.460;3.762;2023-04-26T04:52:33;13.00;53.50
78647;DHT22;67961;43.460;3.762;2023-04-26T04:54:59;13.00;53.60
78647;DHT22;67961;43.460;3.762;2023-04-26T04:57:25;12.90;53.50
78647;DHT22;67961;43.460;3.762;2023-04-26T04:59:51;12.90;53.70
78647;DHT22;67961;43.460;3.762;2023-04-26T05:02:17;12.90;53.70
78647;DHT22;67961;43.460;3.762;2023-04-26T05:04:43;12.90;53.80
78647;DHT22;67961;43.460;3.762;2023-04-26T05:07:09;13.00;53.70
78647;DHT22;67961;43.460;3.762;2023-04-26T05:09:34;13.10;53.70
78647;DHT22;67961;43.460;3.762;2023-04-26T05:12:01;13.50;53.30
78647;DHT22;67961;43.460;3.762;2023-04-26T05:14:29;13.80;53.00
78647;DHT22;67961;43.460;3.762;2023-04-26T05:16:54;13.90;52.70
78647;DHT22;67961;43.460;3.762;2023-04-26T05:19:20;13.90;52.50
78647;DHT22;67961;43.460;3.762;2023-04-26T05:21:46;13.90;52.80
78647;DHT22;67961;43.460;3.762;2023-04-26T05:24:12;13.90;53.00
78647;DHT22;67961;43.460;3.762;2023-04-26T05:26:37;13.90;52.80
78647;DHT22;67961;43.460;3.762;2023-04-26T05:29:03;14.00;52.70
78647;DHT22;67961;43.460;3.762;2023-04-26T05:31:28;14.10;52.70
78647;DHT22;67961;43.460;3.762;2023-04-26T05:33:54;14.10;52.70
78647;DHT22;67961;43.460;3.762;2023-04-26T05:36:20;14.10;53.00
78647;DHT22;67961;43.460;3.762;2023-04-26T05:38:46;14.20;52.80
78647;DHT22;67961;43.460;3.762;2023-04-26T05:41:12;14.20;52.70
78647;DHT22;67961;43.460;3.762;2023-04-26T05:43:38;14.30;52.80
78647;DHT22;67961;43.460;3.762;2023-04-26T05:46:04;14.40;52.70
78647;DHT22;67961;43.460;3.762;2023-04-26T05:48:30;14.40;52.80
78647;DHT22;67961;43.460;3.762;2023-04-26T05:50:56;14.50;52.70
78647;DHT22;67961;43.460;3.762;2023-04-26T05:53:21;14.50;52.70
78647;DHT22;67961;43.460;3.762;2023-04-26T05:55:47;14.60;53.00
78647;DHT22;67961;43.460;3.762;2023-04-26T05:58:13;14.70;53.10
78647;DHT22;67961;43.460;3.762;2023-04-26T06:00:39;14.80;52.50
78647;DHT22;67961;43.460;3.762;2023-04-26T06:03:05;14.90;52.30
78647;DHT22;67961;43.460;3.762;2023-04-26T06:05:31;15.00;52.10
78647;DHT22;67961;43.460;3.762;2023-04-26T06:07:57;15.00;52.00
78647;DHT22;67961;43.460;3.762;2023-04-26T06:10:23;15.20;52.00
78647;DHT22;67961;43.460;3.762;2023-04-26T06:12:48;15.30;51.90
78647;DHT22;67961;43.460;3.762;2023-04-26T06:15:14;15.30;52.20
78647;DHT22;67961;43.460;3.762;2023-04-26T06:17:40;15.30;51.80
78647;DHT22;67961;43.460;3.762;2023-04-26T06:20:07;15.30;51.90
78647;DHT22;67961;43.460;3.762;2023-04-26T06:22:34;15.30;51.40
78647;DHT22;67961;43.460;3.762;2023-04-26T06:25:00;15.60;51.00
78647;DHT22;67961;43.460;3.762;2023-04-26T06:27:26;15.80;50.00
78647;DHT22;67961;43.460;3.762;2023-04-26T06:29:51;16.00;49.20
78647;DHT22;67961;43.460;3.762;2023-04-26T06:32:17;15.90;49.70
78647;DHT22;67961;43.460;3.762;2023-04-26T06:34:43;16.00;50.50
78647;DHT22;67961;43.460;3.762;2023-04-26T06:37:10;16.00;50.60
78647;DHT22;67961;43.460;3.762;2023-04-26T06:39:36;16.00;50.00
78647;DHT22;67961;43.460;3.762;2023-04-26T06:42:03;16.00;49.80
78647;DHT22;67961;43.460;3.762;2023-04-26T06:44:29;16.00;50.20
78647;DHT22;67961;43.460;3.762;2023-04-26T06:46:55;16.10;50.10
78647;DHT22;67961;43.460;3.762;2023-04-26T06:49:21;16.10;50.50
78647;DHT22;67961;43.460;3.762;2023-04-26T06:51:47;16.20;50.60
78647;DHT22;67961;43.460;3.762;2023-04-26T06:54:13;16.20;50.40
78647;DHT22;67961;43.460;3.762;2023-04-26T06:56:39;16.20;50.70
78647;DHT22;67961;43.460;3.762;2023-04-26T06:59:05;16.20;50.00
78647;DHT22;67961;43.460;3.762;2023-04-26T07:01:33;16.20;50.50
78647;DHT22;67961;43.460;3.762;2023-04-26T07:04:03;16.40;49.70
78647;DHT22;67961;43.460;3.762;2023-04-26T07:06:30;16.40;49.70
78647;DHT22;67961;43.460;3.762;2023-04-26T07:08:57;16.50;49.70
78647;DHT22;67961;43.460;3.762;2023-04-26T07:11:23;16.60;49.40
78647;DHT22;67961;43.460;3.762;2023-04-26T07:13:49;16.60;49.50
78647;DHT22;67961;43.460;3.762;2023-04-26T07:16:15;16.60;49.20
78647;DHT22;67961;43.460;3.762;2023-04-26T07:18:42;16.70;49.20
78647;DHT22;67961;43.460;3.762;2023-04-26T07:21:07;16.80;48.80
78647;DHT22;67961;43.460;3.762;2023-04-26T07:23:33;16.80;49.10
78647;DHT22;67961;43.460;3.762;2023-04-26T07:25:59;16.90;49.40
78647;DHT22;67961;43.460;3.762;2023-04-26T07:28:26;17.00;48.40
78647;DHT22;67961;43.460;3.762;2023-04-26T07:30:52;17.00;50.00
78647;DHT22;67961;43.460;3.762;2023-04-26T07:33:18;17.00;49.40
78647;DHT22;67961;43.460;3.762;2023-04-26T07:35:44;16.90;49.80
78647;DHT22;67961;43.460;3.762;2023-04-26T07:38:09;17.00;49.30
78647;DHT22;67961;43.460;3.762;2023-04-26T07:40:35;17.00;49.80
78647;DHT22;67961;43.460;3.762;2023-04-26T07:43:01;17.00;50.10
78647;DHT22;67961;43.460;3.762;2023-04-26T07:45:27;16.90;49.90
78647;DHT22;67961;43.460;3.762;2023-04-26T07:47:53;16.90;49.90
78647;DHT22;67961;43.460;3.762;2023-04-26T07:50:19;17.00;50.30
78647;DHT22;67961;43.460;3.762;2023-04-26T07:52:47;17.00;50.30
78647;DHT22;67961;43.460;3.762;2023-04-26T07:55:13;17.00;50.00
78647;DHT22;67961;43.460;3.762;2023-04-26T07:57:39;17.00;49.80
78647;DHT22;67961;43.460;3.762;2023-04-26T08:00:05;17.10;48.80
78647;DHT22;67961;43.460;3.762;2023-04-26T08:02:34;17.20;49.70
78647;DHT22;67961;43.460;3.762;2023-04-26T08:05:00;17.40;49.00
78647;DHT22;67961;43.460;3.762;2023-04-26T08:07:26;17.40;48.60
78647;DHT22;67961;43.460;3.762;2023-04-26T08:09:52;17.50;49.00
78647;DHT22;67961;43.460;3.762;2023-04-26T08:12:18;17.60;48.90
78647;DHT22;67961;43.460;3.762;2023-04-26T08:14:44;19.40;46.70
78647;DHT22;67961;43.460;3.762;2023-04-26T08:17:10;21.40;44.20
78647;DHT22;67961;43.460;3.762;2023-04-26T08:19:36;25.20;39.70
78647;DHT22;67961;43.460;3.762;2023-04-26T08:22:02;28.60;36.40
78647;DHT22;67961;43.460;3.762;2023-04-26T08:24:28;30.50;34.30
78647;DHT22;67961;43.460;3.762;2023-04-26T08:26:54;31.80;33.10
78647;DHT22;67961;43.460;3.762;2023-04-26T08:29:21;32.70;32.10
78647;DHT22;67961;43.460;3.762;2023-04-26T08:31:47;32.80;31.60
78647;DHT22;67961;43.460;3.762;2023-04-26T08:34:13;33.00;31.60
78647;DHT22;67961;43.460;3.762;2023-04-26T08:36:41;33.20;31.90
78647;DHT22;67961;43.460;3.762;2023-04-26T08:39:07;33.30;31.60
78647;DHT22;67961;43.460;3.762;2023-04-26T08:41:36;33.10;31.60
78647;DHT22;67961;43.460;3.762;2023-04-26T08:44:03;32.60;30.90
78647;DHT22;67961;43.460;3.762;2023-04-26T08:46:36;29.50;34.40
78647;DHT22;67961;43.460;3.762;2023-04-26T08:49:16;26.90;36.90
78647;DHT22;67961;43.460;3.762;2023-04-26T08:51:44;25.30;38.90
78647;DHT22;67961;43.460;3.762;2023-04-26T08:54:11;24.40;39.80
78647;DHT22;67961;43.460;3.762;2023-04-26T08:56:38;23.80;39.50
78647;DHT22;67961;43.460;3.762;2023-04-26T08:59:04;23.40;39.20
78647;DHT22;67961;43.460;3.762;2023-04-26T09:01:30;22.80;40.50
78647;DHT22;67961;43.460;3.762;2023-04-26T09:03:58;22.50;41.20
78647;DHT22;67961;43.460;3.762;2023-04-26T09:06:24;22.10;41.00
78647;DHT22;67961;43.460;3.762;2023-04-26T09:08:54;21.90;42.30
78647;DHT22;67961;43.460;3.762;2023-04-26T09:11:20;22.20;42.50
78647;DHT22;67961;43.460;3.762;2023-04-26T09:13:46;22.20;42.60
78647;DHT22;67961;43.460;3.762;2023-04-26T09:16:12;21.90;42.40
78647;DHT22;67961;43.460;3.762;2023-04-26T09:18:48;22.10;41.70
78647;DHT22;67961;43.460;3.762;2023-04-26T09:21:15;21.70;43.50
78647;DHT22;67961;43.460;3.762;2023-04-26T09:23:57;22.20;42.60
78647;DHT22;67961;43.460;3.762;2023-04-26T09:26:22;22.20;42.80
78647;DHT22;67961;43.460;3.762;2023-04-26T09:28:48;22.40;42.50
78647;DHT22;67961;43.460;3.762;2023-04-26T09:31:38;22.30;41.80
78647;DHT22;67961;43.460;3.762;2023-04-26T09:34:04;22.30;41.80
78647;DHT22;67961;43.460;3.762;2023-04-26T09:36:30;22.40;41.60
78647;DHT22;67961;43.460;3.762;2023-04-26T09:38:56;22.30;42.50
78647;DHT22;67961;43.460;3.762;2023-04-26T09:41:22;22.40;41.50
78647;DHT22;67961;43.460;3.762;2023-04-26T09:43:52;22.40;41.60
78647;DHT22;67961;43.460;3.762;2023-04-26T09:46:21;22.40;41.70
78647;DHT22;67961;43.460;3.762;2023-04-26T09:48:59;22.30;41.60
78647;DHT22;67961;43.460;3.762;2023-04-26T09:51:25;22.50;42.20
78647;DHT22;67961;43.460;3.762;2023-04-26T09:53:53;22.50;41.40
78647;DHT22;67961;43.460;3.762;2023-04-26T09:56:19;22.50;41.60
78647;DHT22;67961;43.460;3.762;2023-04-26T10:01:13;22.60;41.40
78647;DHT22;67961;43.460;3.762;2023-04-26T10:03:40;22.60;40.40
78647;DHT22;67961;43.460;3.762;2023-04-26T10:06:07;22.50;41.60
78647;DHT22;67961;43.460;3.762;2023-04-26T10:08:33;22.60;41.10
78647;DHT22;67961;43.460;3.762;2023-04-26T10:11:01;22.20;41.10
78647;DHT22;67961;43.460;3.762;2023-04-26T10:13:30;22.00;41.60
78647;DHT22;67961;43.460;3.762;2023-04-26T10:15:57;21.90;42.50
78647;DHT22;67961;43.460;3.762;2023-04-26T10:18:24;21.50;42.80
78647;DHT22;67961;43.460;3.762;2023-04-26T10:20:51;21.10;42.50
78647;DHT22;67961;43.460;3.762;2023-04-26T10:23:20;21.00;42.60
78647;DHT22;67961;43.460;3.762;2023-04-26T10:25:46;20.90;42.70
78647;DHT22;67961;43.460;3.762;2023-04-26T10:28:12;21.00;43.10
78647;DHT22;67961;43.460;3.762;2023-04-26T10:30:58;20.80;43.60
78647;DHT22;67961;43.460;3.762;2023-04-26T10:33:25;20.90;44.00
78647;DHT22;67961;43.460;3.762;2023-04-26T10:36:12;21.00;43.90
78647;DHT22;67961;43.460;3.762;2023-04-26T10:38:40;21.20;43.40
78647;DHT22;67961;43.460;3.762;2023-04-26T10:41:32;21.40;42.70
78647;DHT22;67961;43.460;3.762;2023-04-26T10:44:35;21.60;42.90
78647;DHT22;67961;43.460;3.762;2023-04-26T10:46:50;21.70;42.70
78647;DHT22;67961;43.460;3.762;2023-04-26T10:49:19;21.50;42.70
78647;DHT22;67961;43.460;3.762;2023-04-26T10:52:10;21.50;43.70
78647;DHT22;67961;43.460;3.762;2023-04-26T10:57:20;21.60;45.40
78647;DHT22;67961;43.460;3.762;2023-04-26T11:10:38;21.80;48.00
78647;DHT22;67961;43.460;3.762;2023-04-26T11:13:04;22.30;47.30
78647;DHT22;67961;43.460;3.762;2023-04-26T11:15:30;22.50;47.20
78647;DHT22;67961;43.460;3.762;2023-04-26T11:17:56;22.20;47.90
78647;DHT22;67961;43.460;3.762;2023-04-26T11:20:26;22.20;48.60
78647;DHT22;67961;43.460;3.762;2023-04-26T11:22:52;22.00;48.90
78647;DHT22;67961;43.460;3.762;2023-04-26T11:25:18;21.90;49.40
78647;DHT22;67961;43.460;3.762;2023-04-26T11:27:44;21.90;49.70
78647;DHT22;67961;43.460;3.762;2023-04-26T11:30:11;22.00;49.50
78647;DHT22;67961;43.460;3.762;2023-04-26T11:32:36;22.10;49.20
78647;DHT22;67961;43.460;3.762;2023-04-26T11:35:02;22.30;49.40
78647;DHT22;67961;43.460;3.762;2023-04-26T11:37:28;22.20;49.20
78647;DHT22;67961;43.460;3.762;2023-04-26T11:39:56;22.20;49.30
78647;DHT22;67961;43.460;3.762;2023-04-26T11:42:24;22.00;49.50
78647;DHT22;67961;43.460;3.762;2023-04-26T11:44:51;21.80;50.10
78647;DHT22;67961;43.460;3.762;2023-04-26T11:47:17;21.90;50.30
78647;DHT22;67961;43.460;3.762;2023-04-26T11:49:45;22.10;50.10
78647;DHT22;67961;43.460;3.762;2023-04-26T11:52:11;22.40;49.70
78647;DHT22;67961;43.460;3.762;2023-04-26T11:54:37;22.40;49.70
78647;DHT22;67961;43.460;3.762;2023-04-26T11:57:13;22.20;49.70
78647;DHT22;67961;43.460;3.762;2023-04-26T11:59:40;22.20;50.00
78647;DHT22;67961;43.460;3.762;2023-04-26T12:02:06;21.90;50.60
78647;DHT22;67961;43.460;3.762;2023-04-26T12:04:32;22.00;51.10
78647;DHT22;67961;43.460;3.762;2023-04-26T12:06:58;22.10;51.50
78647;DHT22;67961;43.460;3.762;2023-04-26T12:09:28;22.10;50.60
78647;DHT22;67961;43.460;3.762;2023-04-26T12:16:59;21.90;51.00
78647;DHT22;67961;43.460;3.762;2023-04-26T12:19:26;22.00;51.20
78647;DHT22;67961;43.460;3.762;2023-04-26T12:21:52;21.80;51.30
78647;DHT22;67961;43.460;3.762;2023-04-26T12:24:26;21.70;51.90
78647;DHT22;67961;43.460;3.762;2023-04-26T12:26:54;21.70;52.10
78647;DHT22;67961;43.460;3.762;2023-04-26T12:29:20;21.60;52.50
78647;DHT22;67961;43.460;3.762;2023-04-26T12:31:46;21.70;52.90
78647;DHT22;67961;43.460;3.762;2023-04-26T12:34:12;21.70;52.80
78647;DHT22;67961;43.460;3.762;2023-04-26T12:36:41;21.50;53.30
78647;DHT22;67961;43.460;3.762;2023-04-26T12:39:12;21.30;54.20
78647;DHT22;67961;43.460;3.762;2023-04-26T12:41:39;21.10;54.80
78647;DHT22;67961;43.460;3.762;2023-04-26T12:44:07;21.10;55.20
78647;DHT22;67961;43.460;3.762;2023-04-26T12:46:34;21.10;55.20
78647;DHT22;67961;43.460;3.762;2023-04-26T12:48:59;21.30;55.30
78647;DHT22;67961;43.460;3.762;2023-04-26T12:51:25;21.30;55.60
78647;DHT22;67961;43.460;3.762;2023-04-26T12:53:51;21.30;55.00
78647;DHT22;67961;43.460;3.762;2023-04-26T12:56:17;21.30;54.90
78647;DHT22;67961;43.460;3.762;2023-04-26T12:58:43;21.30;55.00
78647;DHT22;67961;43.460;3.762;2023-04-26T13:01:09;21.40;55.00
78647;DHT22;67961;43.460;3.762;2023-04-26T13:03:35;21.40;55.20
78647;DHT22;67961;43.460;3.762;2023-04-26T13:06:01;21.30;55.40
78647;DHT22;67961;43.460;3.762;2023-04-26T13:08:27;21.20;55.60
78647;DHT22;67961;43.460;3.762;2023-04-26T13:10:53;21.10;55.50
78647;DHT22;67961;43.460;3.762;2023-04-26T13:13:19;21.10;55.60
78647;DHT22;67961;43.460;3.762;2023-04-26T13:15:44;21.10;55.90
78647;DHT22;67961;43.460;3.762;2023-04-26T13:18:10;21.00;56.00
78647;DHT22;67961;43.460;3.762;2023-04-26T13:20:36;21.00;56.40
78647;DHT22;67961;43.460;3.762;2023-04-26T13:23:02;21.00;56.20
78647;DHT22;67961;43.460;3.762;2023-04-26T13:25:29;20.90;56.30
78647;DHT22;67961;43.460;3.762;2023-04-26T13:27:54;20.70;56.60
78647;DHT22;67961;43.460;3.762;2023-04-26T13:30:20;20.70;56.70
78647;DHT22;67961;43.460;3.762;2023-04-26T13:32:46;20.70;57.00
78647;DHT22;67961;43.460;3.762;2023-04-26T13:35:11;20.80;57.40
78647;DHT22;67961;43.460;3.762;2023-04-26T13:37:37;20.80;57.70
78647;DHT22;67961;43.460;3.762;2023-04-26T13:40:03;20.80;57.80
78647;DHT22;67961;43.460;3.762;2023-04-26T13:42:29;20.70;58.10
78647;DHT22;67961;43.460;3.762;2023-04-26T13:44:56;20.70;58.50
78647;DHT22;67961;43.460;3.762;2023-04-26T13:47:21;20.70;58.60
78647;DHT22;67961;43.460;3.762;2023-04-26T13:49:47;20.70;58.80
78647;DHT22;67961;43.460;3.762;2023-04-26T13:52:13;20.60;59.00
78647;DHT22;67961;43.460;3.762;2023-04-26T13:54:38;20.60;59.30
78647;DHT22;67961;43.460;3.762;2023-04-26T13:57:04;20.70;59.20
78647;DHT22;67961;43.460;3.762;2023-04-26T13:59:30;20.70;59.20
78647;DHT22;67961;43.460;3.762;2023-04-26T14:01:57;20.50;59.00
78647;DHT22;67961;43.460;3.762;2023-04-26T14:04:22;20.50;59.30
78647;DHT22;67961;43.460;3.762;2023-04-26T14:06:48;20.50;59.70
78647;DHT22;67961;43.460;3.762;2023-04-26T14:09:14;20.50;59.50
78647;DHT22;67961;43.460;3.762;2023-04-26T14:11:40;20.50;59.20
78647;DHT22;67961;43.460;3.762;2023-04-26T14:14:06;20.50;59.30
78647;DHT22;67961;43.460;3.762;2023-04-26T14:16:31;20.50;59.30
78647;DHT22;67961;43.460;3.762;2023-04-26T14:18:57;20.50;59.10
78647;DHT22;67961;43.460;3.762;2023-04-26T14:21:23;20.60;58.70
78647;DHT22;67961;43.460;3.762;2023-04-26T14:23:49;20.70;58.60
78647;DHT22;67961;43.460;3.762;2023-04-26T14:26:15;20.80;58.20
78647;DHT22;67961;43.460;3.762;2023-04-26T14:28:41;20.80;58.20
78647;DHT22;67961;43.460;3.762;2023-04-26T14:31:06;20.70;57.90
78647;DHT22;67961;43.460;3.762;2023-04-26T14:33:33;20.70;57.70
78647;DHT22;67961;43.460;3.762;2023-04-26T14:35:58;20.60;57.70
78647;DHT22;67961;43.460;3.762;2023-04-26T14:38:24;20.60;58.10
78647;DHT22;67961;43.460;3.762;2023-04-26T14:40:49;20.70;58.00
78647;DHT22;67961;43.460;3.762;2023-04-26T14:43:15;20.80;57.70
78647;DHT22;67961;43.460;3.762;2023-04-26T14:45:42;20.80;57.60
78647;DHT22;67961;43.460;3.762;2023-04-26T14:48:07;20.90;57.60
78647;DHT22;67961;43.460;3.762;2023-04-26T14:50:33;20.90;57.50
78647;DHT22;67961;43.460;3.762;2023-04-26T14:52:59;20.90;57.60
78647;DHT22;67961;43.460;3.762;2023-04-26T14:55:24;20.90;57.90
78647;DHT22;67961;43.460;3.762;2023-04-26T14:57:52;21.10;57.60
78647;DHT22;67961;43.460;3.762;2023-04-26T15:00:18;21.10;57.70
78647;DHT22;67961;43.460;3.762;2023-04-26T15:02:45;21.10;57.50
78647;DHT22;67961;43.460;3.762;2023-04-26T15:05:11;21.00;57.70
78647;DHT22;67961;43.460;3.762;2023-04-26T15:07:40;21.00;58.00
78647;DHT22;67961;43.460;3.762;2023-04-26T15:10:06;21.00;58.20
78647;DHT22;67961;43.460;3.762;2023-04-26T15:12:33;20.90;58.30
78647;DHT22;67961;43.460;3.762;2023-04-26T15:14:59;21.00;58.40
78647;DHT22;67961;43.460;3.762;2023-04-26T15:17:24;21.00;58.50
78647;DHT22;67961;43.460;3.762;2023-04-26T15:19:50;21.00;58.30
78647;DHT22;67961;43.460;3.762;2023-04-26T15:22:18;21.00;58.30
78647;DHT22;67961;43.460;3.762;2023-04-26T15:24:44;21.10;58.20
78647;DHT22;67961;43.460;3.762;2023-04-26T15:27:09;21.10;58.10
78647;DHT22;67961;43.460;3.762;2023-04-26T15:29:35;21.20;58.00
78647;DHT22;67961;43.460;3.762;2023-04-26T15:32:02;21.30;58.00
78647;DHT22;67961;43.460;3.762;2023-04-26T15:34:27;21.30;57.80
78647;DHT22;67961;43.460;3.762;2023-04-26T15:36:57;21.30;57.90
78647;DHT22;67961;43.460;3.762;2023-04-26T15:39:24;21.30;58.00
78647;DHT22;67961;43.460;3.762;2023-04-26T15:41:50;21.40;57.90
78647;DHT22;67961;43.460;3.762;2023-04-26T15:44:16;21.40;57.90
78647;DHT22;67961;43.460;3.762;2023-04-26T15:46:41;21.30;58.00
78647;DHT22;67961;43.460;3.762;2023-04-26T15:49:07;21.30;58.10